• Join FlightAware (Why Join?)
  • Login
  • US Flag 
07:56AM EDT


 

Airport Tracker/Info


-or-


 

Live Flight TrackerFlight Track Log ✈ EJA814 ✈ 13-May-2013 ✈ KGNV - KMCO

Flight Track Log - Related Links

Times and Time Zones

All times are in EDT time to prevent confusion due to time zone crossing. See the EJA814 flight status page for this flight to view local times or setup timezone preferences in your user account.

Time Position Orientation Groundspeed Altitude Reporting Facility
EDT Latitude Longitude Course Direction KTS MPH feet Rate Location/Type
02:57PM 29.6889 -82.2806 279° West 168 193 600  Level Jacksonville Center
02:58PM 29.6997 -82.3617 279° West 255 293 3,900 2,940 Climbing Jacksonville Center
02:59PM 29.6286 -82.3814 194° South 304 350 6,900 1,500 Climbing Jacksonville Center
03:00PM 29.5556 -82.3364 152° Southeast 317 365 7,000  Climbing Jacksonville Center
03:01PM 29.4822 -82.2747 144° Southeast 301 346 7,000  Level Jacksonville Center
03:02PM 29.4150 -82.2250 147° Southeast 291 335 7,000  Level Jacksonville Center
03:03PM 29.3439 -82.1661 144° Southeast 303 349 7,000  Level Jacksonville Center
03:04PM 29.2642 -82.1047 146° Southeast 316 364 7,000  Level Jacksonville Center
03:05PM 29.1969 -82.0481 144° Southeast 310 357 7,000  Level Jacksonville Center
03:06PM 29.1214 -81.9917 147° Southeast 295 339 7,000  Level Jacksonville Center
03:08PM 29.0167 -81.9000 143° Southeast 294 338 7,000  Level Orlando TRACON
03:09PM 28.9500 -81.8500 147° Southeast 293 337 7,000  Level Orlando TRACON
03:10PM 28.8833 -81.8000 147° Southeast 302 348 7,000  Level Orlando TRACON
03:11PM 28.8167 -81.7333 139° Southeast 311 358 7,000  Level Orlando TRACON
03:12PM 28.7333 -81.6833 152° Southeast 306 352 7,000  Level Orlando TRACON
03:13PM 28.6667 -81.6500 156° South 300 345 7,000 -540 Level Orlando TRACON
03:14PM 28.6000 -81.6000 147° Southeast 291 335 6,000 -540 Descending Orlando TRACON
03:15PM 28.5167 -81.5500 152° Southeast 293 337 6,000  Level Orlando TRACON
03:16PM 28.4500 -81.5167 156° South 277 319 6,000 -120 Level Orlando TRACON
03:17PM 28.4000 -81.4667 139° Southeast 242 278 5,800 -540 Descending Orlando TRACON
03:18PM 28.3333 -81.4333 156° South 242 278 5,000 -660 Descending Orlando TRACON
03:19PM 28.2833 -81.4167 164° South 195 224 4,600 -540 Descending Orlando TRACON
03:20PM 28.2333 -81.4000 164° South 195 224 4,000 -600 Descending Orlando TRACON
03:21PM 28.2333 -81.3333 90° East 173 199 3,500 -540 Descending Orlando TRACON
03:22PM 28.2833 -81.3333 360° North 150 173 3,000 -780 Descending Orlando TRACON
03:23PM 28.3167 -81.3333 360° North 139 160 2,000 -780 Descending Orlando TRACON
03:24PM 28.3500 -81.3333 360° North 142 163 1,500 -660 Descending Orlando TRACON
03:25PM 28.3833 -81.3333 360° North 107 123 700 -840 Descending Orlando TRACON
03:27PM 28.4167 -81.3000 24° Northeast  Level FlightAware Approximate
03:34PM 28.4294 -81.3090 24° Northeast  Level Estimated
03:35PM 28.4294 -81.3090 24° Northeast  Level Estimated
03:36PM 28.4294 -81.3090 24° Northeast  Level Estimated
03:37PM 28.4294 -81.3090 24° Northeast  Level Estimated